createdAt,value
2019-02-16T00:00:04.396Z,8.37
2019-02-16T00:05:07.502Z,8.07
2019-02-16T00:10:10.806Z,8.00
2019-02-16T00:15:14.483Z,8.30
2019-02-16T00:20:17.897Z,7.97
2019-02-16T00:25:21.529Z,7.90
2019-02-16T00:30:24.916Z,6.93
2019-02-16T00:35:27.995Z,7.87
2019-02-16T00:40:31.283Z,7.10
2019-02-16T00:45:34.354Z,8.03
2019-02-16T00:50:38.063Z,8.93
2019-02-16T00:55:41.822Z,6.87
2019-02-16T01:00:45.221Z,7.77
2019-02-16T01:05:48.615Z,7.03
2019-02-16T01:10:52.350Z,9.43
2019-02-16T01:15:56.059Z,12.87
2019-02-16T01:20:59.130Z,10.77
2019-02-16T01:26:02.491Z,8.43
2019-02-16T01:31:05.887Z,9.23
2019-02-16T01:36:09.628Z,9.23
2019-02-16T01:41:13.342Z,7.57
2019-02-16T01:46:17.059Z,11.83
2019-02-16T01:51:20.127Z,13.27
2019-02-16T01:56:23.528Z,11.43
2019-02-16T02:01:27.202Z,8.60
2019-02-16T02:06:30.927Z,8.67
2019-02-16T02:11:34.651Z,9.03
2019-02-16T02:16:37.972Z,8.27
2019-02-16T02:21:41.632Z,8.90
2019-02-16T02:26:45.082Z,7.77
2019-02-16T02:31:48.839Z,8.60
2019-02-16T02:36:51.909Z,7.53
2019-02-16T02:41:55.562Z,8.97
2019-02-16T02:46:58.630Z,8.73
2019-02-16T02:52:01.731Z,11.03
2019-02-16T02:57:05.374Z,9.43
2019-02-16T03:02:08.735Z,9.37
2019-02-16T03:07:12.123Z,10.03
2019-02-16T03:12:15.831Z,9.10
2019-02-16T03:17:19.551Z,8.60
2019-02-16T03:22:22.972Z,9.08
2019-02-16T03:27:49.325Z,9.87
2019-02-16T03:32:55.792Z,9.73
2019-02-16T03:38:21.239Z,9.40
2019-02-16T03:43:24.963Z,9.47
2019-02-16T03:48:28.030Z,9.23
2019-02-16T03:53:31.391Z,9.50
2019-02-16T03:58:35.103Z,8.53
2019-02-16T04:03:38.427Z,10.70
2019-02-16T04:08:41.740Z,9.63
2019-02-16T04:13:45.126Z,9.30
2019-02-16T04:18:48.575Z,8.87
2019-02-16T04:23:51.893Z,9.73
2019-02-16T04:28:55.300Z,8.83
2019-02-16T04:33:58.710Z,8.57
2019-02-16T04:39:02.110Z,8.93
2019-02-16T04:44:05.851Z,9.47
2019-02-16T04:49:09.271Z,11.67
2019-02-16T04:54:12.658Z,11.00
2019-02-16T04:59:16.407Z,12.37
2019-02-16T05:04:19.802Z,10.73
2019-02-16T05:09:23.530Z,10.80
2019-02-16T05:14:26.952Z,10.03
2019-02-16T05:19:30.353Z,12.10
2019-02-16T05:24:33.762Z,10.67
2019-02-16T05:29:37.491Z,12.00
2019-02-16T05:34:40.556Z,9.77
2019-02-16T05:39:43.921Z,10.50
2019-02-16T05:44:47.632Z,10.40
2019-02-16T05:49:51.027Z,9.90
2019-02-16T05:54:54.396Z,10.40
2019-02-16T05:59:57.780Z,10.23
2019-02-16T06:05:01.103Z,13.53
2019-02-16T06:10:06.348Z,11.10
2019-02-16T06:15:09.989Z,11.13
2019-02-16T06:20:13.069Z,12.57
2019-02-16T06:25:16.150Z,11.90
2019-02-16T06:30:19.510Z,12.13
2019-02-16T06:35:27.041Z,11.93
2019-02-16T06:40:30.440Z,12.67
2019-02-16T06:45:33.914Z,10.73
2019-02-16T06:50:37.405Z,11.77
2019-02-16T06:55:45.378Z,10.67
2019-02-16T07:00:48.696Z,11.20
2019-02-16T07:05:52.092Z,12.87
2019-02-16T07:10:55.163Z,13.63
2019-02-16T07:16:16.865Z,12.70
2019-02-16T07:21:20.584Z,11.37
2019-02-16T07:26:24.704Z,13.90
2019-02-16T07:31:27.827Z,11.30
2019-02-16T07:36:30.898Z,11.33
2019-02-16T07:41:34.667Z,14.23
2019-02-16T07:46:39.713Z,12.67
2019-02-16T07:51:47.667Z,11.83
2019-02-16T07:56:58.498Z,10.30
2019-02-16T08:02:06.338Z,8.80
2019-02-16T08:07:14.075Z,8.83
2019-02-16T08:12:33.997Z,8.53
2019-02-16T08:17:42.156Z,8.27
2019-02-16T08:22:50.118Z,8.03
2019-02-16T08:27:55.452Z,9.00
2019-02-16T08:33:12.430Z,8.77
2019-02-16T08:38:17.531Z,8.43
2019-02-16T08:43:22.822Z,8.70
2019-02-16T08:48:46.241Z,8.93
2019-02-16T08:54:10.174Z,10.17
2019-02-16T08:59:21.275Z,8.60
2019-02-16T09:04:26.223Z,10.17
2019-02-16T09:09:37.138Z,8.93
2019-02-16T09:14:42.183Z,10.07
2019-02-16T09:19:59.820Z,12.20
2019-02-16T09:25:04.810Z,11.60
2019-02-16T09:30:18.522Z,10.03
2019-02-16T09:35:23.575Z,10.50
2019-02-16T09:40:31.430Z,9.03
2019-02-16T09:45:36.123Z,9.57
2019-02-16T09:50:57.174Z,9.37
2019-02-16T09:56:04.881Z,9.77
2019-02-16T10:01:25.010Z,10.00
2019-02-16T10:06:30.050Z,9.67
2019-02-16T10:11:35.086Z,8.45
2019-02-16T10:16:48.886Z,9.33
2019-02-16T10:21:53.943Z,10.27
2019-02-16T10:27:05.015Z,9.80
2019-02-16T10:32:10.365Z,10.53
2019-02-16T10:37:18.303Z,12.33
2019-02-16T10:42:23.391Z,9.40
2019-02-16T10:47:36.854Z,12.00
2019-02-16T10:52:41.860Z,8.90
2019-02-16T10:57:49.496Z,10.67
2019-02-16T11:02:54.866Z,9.93
2019-02-16T11:08:06.215Z,9.43
2019-02-16T11:13:17.395Z,9.30
2019-02-16T11:18:25.343Z,10.60
2019-02-16T11:23:33.091Z,8.93
2019-02-16T11:28:41.379Z,9.67
2019-02-16T11:34:01.395Z,10.07
2019-02-16T11:39:08.028Z,9.27
2019-02-16T11:44:18.780Z,8.90
2019-02-16T11:49:29.564Z,11.10
2019-02-16T11:54:45.474Z,10.67
2019-02-16T11:59:44.492Z,10.57
2019-02-16T12:04:52.484Z,8.97
2019-02-16T12:09:57.864Z,8.57
2019-02-16T12:15:02.817Z,10.33
2019-02-16T12:20:12.882Z,11.77
2019-02-16T12:25:34.102Z,11.67
2019-02-16T12:30:51.156Z,11.60
2019-02-16T12:35:59.110Z,10.57
2019-02-16T12:41:09.570Z,10.17
2019-02-16T12:46:14.631Z,9.77
2019-02-16T12:51:19.351Z,9.80
2019-02-16T12:56:32.814Z,8.87
2019-02-16T13:01:38.168Z,9.80
2019-02-16T13:06:49.058Z,9.33
2019-02-16T13:12:03.321Z,10.27
2019-02-16T13:17:26.916Z,8.63
2019-02-16T13:22:37.687Z,12.20
2019-02-16T13:27:42.739Z,11.83
2019-02-16T13:32:53.919Z,9.23
2019-02-16T13:37:58.641Z,12.37
2019-02-16T13:43:19.836Z,9.70
2019-02-16T13:48:24.882Z,12.07
2019-02-16T13:53:41.742Z,9.20
2019-02-16T13:58:46.554Z,9.90
2019-02-16T14:03:51.901Z,9.27
2019-02-16T14:08:56.618Z,9.57
2019-02-16T14:14:04.371Z,10.57
2019-02-16T14:19:08.086Z,10.17
2019-02-16T14:24:11.409Z,12.80
2019-02-16T14:29:14.488Z,10.47
2019-02-16T14:34:17.891Z,10.53
2019-02-16T14:39:23.181Z,10.37
2019-02-16T14:44:26.622Z,9.03
2019-02-16T14:49:30.322Z,9.60
2019-02-16T14:54:33.967Z,11.93
2019-02-16T14:59:37.659Z,10.57
2019-02-16T15:04:40.760Z,10.33
2019-02-16T15:09:43.835Z,11.83
2019-02-16T15:14:47.169Z,8.57
2019-02-16T15:19:50.566Z,10.50
2019-02-16T15:24:53.871Z,10.03
2019-02-16T15:29:56.956Z,10.37
2019-02-16T15:35:00.862Z,10.73
2019-02-16T15:40:05.309Z,8.93
2019-02-16T15:45:10.081Z,13.37
2019-02-16T15:50:14.941Z,11.77
2019-02-16T15:55:18.013Z,10.90
2019-02-16T16:00:23.016Z,11.33
2019-02-16T16:05:26.372Z,10.20
2019-02-16T16:10:31.431Z,12.03
2019-02-16T16:15:42.293Z,12.40
2019-02-16T16:20:49.480Z,10.03
2019-02-16T16:25:54.202Z,10.37
2019-02-16T16:30:59.507Z,10.03
2019-02-16T16:36:07.373Z,9.80
2019-02-16T16:41:12.411Z,9.70
2019-02-16T16:46:35.530Z,10.37
2019-02-16T16:51:40.577Z,8.30
2019-02-16T16:56:45.664Z,11.97
2019-02-16T17:01:54.116Z,8.97
2019-02-16T17:07:07.812Z,9.80
2019-02-16T17:12:34.735Z,12.33
2019-02-16T17:17:39.944Z,14.87
2019-02-16T17:22:47.711Z,19.47
2019-02-16T17:27:58.978Z,12.37
2019-02-16T17:33:04.361Z,11.48
2019-02-16T17:38:12.145Z,8.97
2019-02-16T17:43:22.970Z,9.83
2019-02-16T17:48:37.235Z,12.20
2019-02-16T17:53:54.672Z,12.30
2019-02-16T17:59:02.655Z,9.83
2019-02-16T18:04:17.603Z,7.93
2019-02-16T18:09:22.726Z,8.30
2019-02-16T18:14:30.355Z,11.53
2019-02-16T18:19:37.010Z,8.40
2019-02-16T18:24:50.808Z,11.47
2019-02-16T18:30:04.631Z,11.63
2019-02-16T18:35:24.965Z,13.43
2019-02-16T18:40:42.733Z,15.10
2019-02-16T18:45:50.118Z,11.67
2019-02-16T18:50:58.454Z,12.47
2019-02-16T18:56:19.487Z,12.63
2019-02-16T19:01:39.951Z,12.90
2019-02-16T19:07:01.673Z,11.68
2019-02-16T19:12:07.178Z,11.40
2019-02-16T19:17:12.599Z,14.20
2019-02-16T19:22:17.695Z,16.53
2019-02-16T19:27:28.716Z,19.60
2019-02-16T19:32:45.680Z,20.90
2019-02-16T19:38:07.103Z,24.17
2019-02-16T19:43:12.153Z,19.33
2019-02-16T19:48:16.945Z,17.27
2019-02-16T19:53:28.278Z,17.67
2019-02-16T19:58:49.519Z,17.20
2019-02-16T20:04:11.058Z,19.53
2019-02-16T20:09:16.470Z,21.23
2019-02-16T20:14:27.534Z,20.60
2019-02-16T20:19:38.557Z,20.53
2019-02-16T20:24:58.520Z,19.23
2019-02-16T20:30:03.566Z,17.23
2019-02-16T20:35:08.935Z,16.73
2019-02-16T20:40:30.921Z,17.93
2019-02-16T20:45:40.932Z,16.37
2019-02-16T20:50:52.059Z,18.40
2019-02-16T20:56:06.308Z,15.57
2019-02-16T21:01:11.671Z,20.00
2019-02-16T21:06:32.743Z,19.43
2019-02-16T21:11:38.054Z,16.77
2019-02-16T21:16:59.394Z,16.35
2019-02-16T21:22:10.191Z,16.50
2019-02-16T21:27:24.447Z,15.13
2019-02-16T21:32:46.022Z,15.00
2019-02-16T21:37:57.047Z,15.77
2019-02-16T21:43:02.098Z,14.30
2019-02-16T21:48:12.939Z,17.07
2019-02-16T21:53:21.436Z,17.33
2019-02-16T21:58:30.621Z,19.27
2019-02-16T22:03:41.807Z,18.10
2019-02-16T22:08:47.173Z,15.77
2019-02-16T22:13:50.906Z,18.77
2019-02-16T22:18:54.554Z,18.23
2019-02-16T22:23:57.635Z,18.50
2019-02-16T22:29:01.370Z,17.80
2019-02-16T22:34:04.766Z,17.27
2019-02-16T22:39:08.242Z,17.60
2019-02-16T22:44:11.884Z,16.33
2019-02-16T22:49:15.292Z,17.73
2019-02-16T22:54:18.698Z,17.87
2019-02-16T22:59:21.773Z,14.90
2019-02-16T23:04:24.862Z,17.33
2019-02-16T23:09:28.415Z,16.40
2019-02-16T23:14:31.787Z,20.47
2019-02-16T23:19:34.858Z,20.17
2019-02-16T23:24:37.944Z,18.90
2019-02-16T23:29:41.031Z,19.90
2019-02-16T23:34:44.334Z,16.43
2019-02-16T23:39:48.019Z,17.93
2019-02-16T23:44:51.426Z,16.30
2019-02-16T23:49:54.760Z,17.50
2019-02-16T23:54:58.493Z,18.83
